sensor_id;sensor_type;location;lat;lon;timestamp;temperature;humidity
21298;DHT22;10808;48.010;11.326;2023-03-13T00:00:20;7.50;99.90
21298;DHT22;10808;48.010;11.326;2023-03-13T00:02:47;7.50;99.90
21298;DHT22;10808;48.010;11.326;2023-03-13T00:05:13;7.50;99.90
21298;DHT22;10808;48.010;11.326;2023-03-13T00:07:40;7.40;99.90
21298;DHT22;10808;48.010;11.326;2023-03-13T00:10:06;7.40;99.90
21298;DHT22;10808;48.010;11.326;2023-03-13T00:12:33;7.30;99.90
21298;DHT22;10808;48.010;11.326;2023-03-13T00:15:00;7.20;99.90
21298;DHT22;10808;48.010;11.326;2023-03-13T00:17:26;7.10;99.90
21298;DHT22;10808;48.010;11.326;2023-03-13T00:19:52;7.00;99.90
21298;DHT22;10808;48.010;11.326;2023-03-13T00:22:20;7.00;99.90
21298;DHT22;10808;48.010;11.326;2023-03-13T00:24:46;6.90;99.90
21298;DHT22;10808;48.010;11.326;2023-03-13T00:27:12;6.90;99.90
21298;DHT22;10808;48.010;11.326;2023-03-13T00:29:38;6.90;99.90
21298;DHT22;10808;48.010;11.326;2023-03-13T00:32:04;6.80;99.90
21298;DHT22;10808;48.010;11.326;2023-03-13T00:34:30;6.80;99.90
21298;DHT22;10808;48.010;11.326;2023-03-13T00:36:57;6.80;99.90
21298;DHT22;10808;48.010;11.326;2023-03-13T00:39:23;6.70;99.90
21298;DHT22;10808;48.010;11.326;2023-03-13T00:41:49;6.70;99.90
21298;DHT22;10808;48.010;11.326;2023-03-13T00:44:15;6.60;99.90
21298;DHT22;10808;48.010;11.326;2023-03-13T00:46:41;6.60;99.90
21298;DHT22;10808;48.010;11.326;2023-03-13T00:49:08;6.50;99.90
21298;DHT22;10808;48.010;11.326;2023-03-13T00:51:34;6.50;99.90
21298;DHT22;10808;48.010;11.326;2023-03-13T00:54:00;6.50;99.90
21298;DHT22;10808;48.010;11.326;2023-03-13T00:56:27;6.40;99.90
21298;DHT22;10808;48.010;11.326;2023-03-13T00:58:53;6.40;99.90
21298;DHT22;10808;48.010;11.326;2023-03-13T01:01:22;6.40;99.90
21298;DHT22;10808;48.010;11.326;2023-03-13T01:03:51;6.30;99.90
21298;DHT22;10808;48.010;11.326;2023-03-13T01:06:20;6.30;99.90
21298;DHT22;10808;48.010;11.326;2023-03-13T01:08:46;6.30;99.90
21298;DHT22;10808;48.010;11.326;2023-03-13T01:11:21;6.20;99.90
21298;DHT22;10808;48.010;11.326;2023-03-13T01:13:48;6.20;99.90
21298;DHT22;10808;48.010;11.326;2023-03-13T01:16:18;6.20;99.90
21298;DHT22;10808;48.010;11.326;2023-03-13T01:18:47;6.10;99.90
21298;DHT22;10808;48.010;11.326;2023-03-13T01:21:14;6.10;99.90
21298;DHT22;10808;48.010;11.326;2023-03-13T01:23:41;6.00;99.90
21298;DHT22;10808;48.010;11.326;2023-03-13T01:26:08;6.00;99.90
21298;DHT22;10808;48.010;11.326;2023-03-13T01:28:34;5.90;99.90
21298;DHT22;10808;48.010;11.326;2023-03-13T01:31:09;5.90;99.90
21298;DHT22;10808;48.010;11.326;2023-03-13T01:33:36;5.80;99.90
21298;DHT22;10808;48.010;11.326;2023-03-13T01:36:03;5.80;99.90
21298;DHT22;10808;48.010;11.326;2023-03-13T01:38:29;5.90;99.90
21298;DHT22;10808;48.010;11.326;2023-03-13T01:40:55;5.80;99.90
21298;DHT22;10808;48.010;11.326;2023-03-13T01:43:23;5.80;99.90
21298;DHT22;10808;48.010;11.326;2023-03-13T01:51:21;5.80;99.90
21298;DHT22;10808;48.010;11.326;2023-03-13T01:54:12;5.70;99.90
21298;DHT22;10808;48.010;11.326;2023-03-13T01:59:16;5.60;99.90
21298;DHT22;10808;48.010;11.326;2023-03-13T02:01:45;5.60;99.90
21298;DHT22;10808;48.010;11.326;2023-03-13T02:04:13;5.50;99.90
21298;DHT22;10808;48.010;11.326;2023-03-13T02:06:42;5.50;99.90
21298;DHT22;10808;48.010;11.326;2023-03-13T02:09:15;5.40;99.90
21298;DHT22;10808;48.010;11.326;2023-03-13T02:11:47;5.40;99.90
21298;DHT22;10808;48.010;11.326;2023-03-13T02:14:16;5.30;99.90
21298;DHT22;10808;48.010;11.326;2023-03-13T02:16:44;5.30;99.90
21298;DHT22;10808;48.010;11.326;2023-03-13T02:19:24;5.20;99.90
21298;DHT22;10808;48.010;11.326;2023-03-13T02:21:58;5.20;99.90
21298;DHT22;10808;48.010;11.326;2023-03-13T02:27:17;5.20;99.90
21298;DHT22;10808;48.010;11.326;2023-03-13T02:29:43;5.20;99.90
21298;DHT22;10808;48.010;11.326;2023-03-13T02:32:11;5.10;99.90
21298;DHT22;10808;48.010;11.326;2023-03-13T02:34:40;5.10;99.90
21298;DHT22;10808;48.010;11.326;2023-03-13T02:37:07;5.10;99.90
21298;DHT22;10808;48.010;11.326;2023-03-13T02:39:44;5.10;99.90
21298;DHT22;10808;48.010;11.326;2023-03-13T02:42:13;5.20;99.90
21298;DHT22;10808;48.010;11.326;2023-03-13T02:44:40;5.10;99.90
21298;DHT22;10808;48.010;11.326;2023-03-13T02:47:07;5.10;99.90
21298;DHT22;10808;48.010;11.326;2023-03-13T02:49:36;5.10;99.90
21298;DHT22;10808;48.010;11.326;2023-03-13T02:54:38;5.10;99.90
21298;DHT22;10808;48.010;11.326;2023-03-13T02:57:06;5.10;99.90
21298;DHT22;10808;48.010;11.326;2023-03-13T02:59:33;5.00;99.90
21298;DHT22;10808;48.010;11.326;2023-03-13T03:01:59;5.00;99.90
21298;DHT22;10808;48.010;11.326;2023-03-13T03:04:26;5.00;99.90
21298;DHT22;10808;48.010;11.326;2023-03-13T03:06:52;5.00;99.90
21298;DHT22;10808;48.010;11.326;2023-03-13T03:09:19;5.00;99.90
21298;DHT22;10808;48.010;11.326;2023-03-13T03:11:45;5.00;99.90
21298;DHT22;10808;48.010;11.326;2023-03-13T03:14:12;5.00;99.90
21298;DHT22;10808;48.010;11.326;2023-03-13T03:16:38;5.00;99.90
21298;DHT22;10808;48.010;11.326;2023-03-13T03:19:04;5.00;99.90
21298;DHT22;10808;48.010;11.326;2023-03-13T03:21:32;5.00;99.90
21298;DHT22;10808;48.010;11.326;2023-03-13T03:23:58;5.00;99.90
21298;DHT22;10808;48.010;11.326;2023-03-13T03:26:24;5.10;99.90
21298;DHT22;10808;48.010;11.326;2023-03-13T03:28:51;5.10;99.90
21298;DHT22;10808;48.010;11.326;2023-03-13T03:31:17;5.10;99.90
21298;DHT22;10808;48.010;11.326;2023-03-13T03:33:44;5.10;99.90
21298;DHT22;10808;48.010;11.326;2023-03-13T03:36:13;5.10;99.90
21298;DHT22;10808;48.010;11.326;2023-03-13T03:38:40;5.10;99.90
21298;DHT22;10808;48.010;11.326;2023-03-13T03:41:07;5.10;99.90
21298;DHT22;10808;48.010;11.326;2023-03-13T03:43:33;5.20;99.90
21298;DHT22;10808;48.010;11.326;2023-03-13T03:45:59;5.20;99.90
21298;DHT22;10808;48.010;11.326;2023-03-13T03:48:25;5.20;99.90
21298;DHT22;10808;48.010;11.326;2023-03-13T03:50:52;5.20;99.90
21298;DHT22;10808;48.010;11.326;2023-03-13T03:53:18;5.20;99.90
21298;DHT22;10808;48.010;11.326;2023-03-13T03:55:44;5.20;99.90
21298;DHT22;10808;48.010;11.326;2023-03-13T03:58:11;5.30;99.90
21298;DHT22;10808;48.010;11.326;2023-03-13T04:00:37;5.30;99.90
21298;DHT22;10808;48.010;11.326;2023-03-13T04:03:03;5.30;99.90
21298;DHT22;10808;48.010;11.326;2023-03-13T04:05:29;5.30;99.90
21298;DHT22;10808;48.010;11.326;2023-03-13T04:07:55;5.30;99.90
21298;DHT22;10808;48.010;11.326;2023-03-13T04:10:21;5.30;99.90
21298;DHT22;10808;48.010;11.326;2023-03-13T04:12:47;5.30;99.90
21298;DHT22;10808;48.010;11.326;2023-03-13T04:15:13;5.30;99.90
21298;DHT22;10808;48.010;11.326;2023-03-13T04:17:40;5.40;99.90
21298;DHT22;10808;48.010;11.326;2023-03-13T04:20:07;5.30;99.90
21298;DHT22;10808;48.010;11.326;2023-03-13T04:22:34;5.40;99.90
21298;DHT22;10808;48.010;11.326;2023-03-13T04:25:00;5.40;99.90
21298;DHT22;10808;48.010;11.326;2023-03-13T04:27:26;5.40;99.90
21298;DHT22;10808;48.010;11.326;2023-03-13T04:29:52;5.40;99.90
21298;DHT22;10808;48.010;11.326;2023-03-13T04:32:18;5.50;99.90
21298;DHT22;10808;48.010;11.326;2023-03-13T04:34:44;5.40;99.90
21298;DHT22;10808;48.010;11.326;2023-03-13T04:37:10;5.40;99.90
21298;DHT22;10808;48.010;11.326;2023-03-13T04:39:36;5.40;99.90
21298;DHT22;10808;48.010;11.326;2023-03-13T04:42:02;5.50;99.90
21298;DHT22;10808;48.010;11.326;2023-03-13T04:44:28;5.50;99.90
21298;DHT22;10808;48.010;11.326;2023-03-13T04:46:54;5.50;99.90
21298;DHT22;10808;48.010;11.326;2023-03-13T04:49:20;5.50;99.90
21298;DHT22;10808;48.010;11.326;2023-03-13T04:51:46;5.50;99.90
21298;DHT22;10808;48.010;11.326;2023-03-13T04:54:12;5.50;99.90
21298;DHT22;10808;48.010;11.326;2023-03-13T04:56:38;5.50;99.90
21298;DHT22;10808;48.010;11.326;2023-03-13T04:59:05;5.60;99.90
21298;DHT22;10808;48.010;11.326;2023-03-13T05:01:31;5.60;99.90
21298;DHT22;10808;48.010;11.326;2023-03-13T05:03:57;5.60;99.90
21298;DHT22;10808;48.010;11.326;2023-03-13T05:06:23;5.60;99.90
21298;DHT22;10808;48.010;11.326;2023-03-13T05:08:50;5.70;99.90
21298;DHT22;10808;48.010;11.326;2023-03-13T05:11:16;5.70;99.90
21298;DHT22;10808;48.010;11.326;2023-03-13T05:13:42;5.70;99.90
21298;DHT22;10808;48.010;11.326;2023-03-13T05:16:08;5.70;99.90
21298;DHT22;10808;48.010;11.326;2023-03-13T05:18:34;5.70;99.90
21298;DHT22;10808;48.010;11.326;2023-03-13T05:21:01;5.80;99.90
21298;DHT22;10808;48.010;11.326;2023-03-13T05:23:28;5.80;99.90
21298;DHT22;10808;48.010;11.326;2023-03-13T05:25:54;5.80;99.90
21298;DHT22;10808;48.010;11.326;2023-03-13T05:28:20;5.80;99.90
21298;DHT22;10808;48.010;11.326;2023-03-13T05:30:46;5.90;99.90
21298;DHT22;10808;48.010;11.326;2023-03-13T05:33:12;5.90;99.90
21298;DHT22;10808;48.010;11.326;2023-03-13T05:35:38;6.00;99.90
21298;DHT22;10808;48.010;11.326;2023-03-13T05:38:04;6.00;99.90
21298;DHT22;10808;48.010;11.326;2023-03-13T05:40:30;6.00;99.90
21298;DHT22;10808;48.010;11.326;2023-03-13T05:42:56;6.10;99.90
21298;DHT22;10808;48.010;11.326;2023-03-13T05:45:22;6.10;99.90
21298;DHT22;10808;48.010;11.326;2023-03-13T05:47:48;6.10;99.90
21298;DHT22;10808;48.010;11.326;2023-03-13T05:50:14;6.20;99.90
21298;DHT22;10808;48.010;11.326;2023-03-13T05:52:40;6.20;99.90
21298;DHT22;10808;48.010;11.326;2023-03-13T05:55:07;6.30;99.90
21298;DHT22;10808;48.010;11.326;2023-03-13T05:57:33;6.30;99.90
21298;DHT22;10808;48.010;11.326;2023-03-13T05:59:59;6.30;99.90
21298;DHT22;10808;48.010;11.326;2023-03-13T06:02:25;6.30;99.90
21298;DHT22;10808;48.010;11.326;2023-03-13T06:04:51;6.40;99.90
21298;DHT22;10808;48.010;11.326;2023-03-13T06:07:17;6.40;99.90
21298;DHT22;10808;48.010;11.326;2023-03-13T06:09:43;6.40;99.90
21298;DHT22;10808;48.010;11.326;2023-03-13T06:12:10;6.40;99.90
21298;DHT22;10808;48.010;11.326;2023-03-13T06:14:36;6.50;99.90
21298;DHT22;10808;48.010;11.326;2023-03-13T06:17:03;6.50;99.90
21298;DHT22;10808;48.010;11.326;2023-03-13T06:19:30;6.50;99.90
21298;DHT22;10808;48.010;11.326;2023-03-13T06:21:57;6.60;99.90
21298;DHT22;10808;48.010;11.326;2023-03-13T06:24:23;6.60;99.90
21298;DHT22;10808;48.010;11.326;2023-03-13T06:26:49;6.60;99.90
21298;DHT22;10808;48.010;11.326;2023-03-13T06:29:16;6.70;99.90
21298;DHT22;10808;48.010;11.326;2023-03-13T06:31:42;6.70;99.90
21298;DHT22;10808;48.010;11.326;2023-03-13T06:34:12;6.80;99.90
21298;DHT22;10808;48.010;11.326;2023-03-13T06:36:38;6.80;99.90
21298;DHT22;10808;48.010;11.326;2023-03-13T06:39:04;6.90;99.90
21298;DHT22;10808;48.010;11.326;2023-03-13T06:41:30;6.90;99.90
21298;DHT22;10808;48.010;11.326;2023-03-13T06:43:57;7.00;99.90
21298;DHT22;10808;48.010;11.326;2023-03-13T06:46:24;7.00;99.90
21298;DHT22;10808;48.010;11.326;2023-03-13T06:48:50;7.10;99.90
21298;DHT22;10808;48.010;11.326;2023-03-13T06:51:20;7.10;99.90
21298;DHT22;10808;48.010;11.326;2023-03-13T06:53:47;7.10;99.90
21298;DHT22;10808;48.010;11.326;2023-03-13T06:56:14;7.20;99.90
21298;DHT22;10808;48.010;11.326;2023-03-13T06:58:40;7.20;99.90
21298;DHT22;10808;48.010;11.326;2023-03-13T07:01:08;7.20;99.90
21298;DHT22;10808;48.010;11.326;2023-03-13T07:03:34;7.20;99.90
21298;DHT22;10808;48.010;11.326;2023-03-13T07:06:01;7.30;99.90
21298;DHT22;10808;48.010;11.326;2023-03-13T07:08:27;7.30;99.90
21298;DHT22;10808;48.010;11.326;2023-03-13T07:10:57;7.30;99.90
21298;DHT22;10808;48.010;11.326;2023-03-13T07:13:23;7.40;99.90
21298;DHT22;10808;48.010;11.326;2023-03-13T07:15:49;7.40;99.90
21298;DHT22;10808;48.010;11.326;2023-03-13T07:18:16;7.50;99.90
21298;DHT22;10808;48.010;11.326;2023-03-13T07:20:42;7.50;99.90
21298;DHT22;10808;48.010;11.326;2023-03-13T07:23:08;7.60;99.90
21298;DHT22;10808;48.010;11.326;2023-03-13T07:25:34;7.60;99.90
21298;DHT22;10808;48.010;11.326;2023-03-13T07:28:01;7.60;99.90
21298;DHT22;10808;48.010;11.326;2023-03-13T07:30:27;7.70;99.90
21298;DHT22;10808;48.010;11.326;2023-03-13T07:32:53;7.70;99.90
21298;DHT22;10808;48.010;11.326;2023-03-13T07:35:19;7.70;99.90
21298;DHT22;10808;48.010;11.326;2023-03-13T07:37:45;7.80;99.90
21298;DHT22;10808;48.010;11.326;2023-03-13T07:40:11;7.80;99.90
21298;DHT22;10808;48.010;11.326;2023-03-13T07:42:41;7.80;99.90
21298;DHT22;10808;48.010;11.326;2023-03-13T07:45:08;7.80;99.90
21298;DHT22;10808;48.010;11.326;2023-03-13T07:47:35;7.90;99.90
21298;DHT22;10808;48.010;11.326;2023-03-13T07:50:01;7.90;99.90
21298;DHT22;10808;48.010;11.326;2023-03-13T07:52:27;8.00;99.90
21298;DHT22;10808;48.010;11.326;2023-03-13T07:54:53;8.10;99.90
21298;DHT22;10808;48.010;11.326;2023-03-13T07:57:19;8.20;99.90
21298;DHT22;10808;48.010;11.326;2023-03-13T07:59:45;8.30;99.90
21298;DHT22;10808;48.010;11.326;2023-03-13T08:02:12;8.40;99.90
21298;DHT22;10808;48.010;11.326;2023-03-13T08:04:39;8.50;99.90
21298;DHT22;10808;48.010;11.326;2023-03-13T08:07:09;8.50;99.90
21298;DHT22;10808;48.010;11.326;2023-03-13T08:09:35;8.60;99.90
21298;DHT22;10808;48.010;11.326;2023-03-13T08:12:01;8.70;99.90
21298;DHT22;10808;48.010;11.326;2023-03-13T08:14:27;8.80;99.90
21298;DHT22;10808;48.010;11.326;2023-03-13T08:16:53;9.00;99.90
21298;DHT22;10808;48.010;11.326;2023-03-13T08:19:19;9.10;99.90
21298;DHT22;10808;48.010;11.326;2023-03-13T08:21:45;9.20;99.90
21298;DHT22;10808;48.010;11.326;2023-03-13T08:24:11;9.30;99.90
21298;DHT22;10808;48.010;11.326;2023-03-13T08:26:40;9.40;99.90
21298;DHT22;10808;48.010;11.326;2023-03-13T08:29:11;9.50;99.90
21298;DHT22;10808;48.010;11.326;2023-03-13T08:31:48;9.70;99.90
21298;DHT22;10808;48.010;11.326;2023-03-13T08:34:15;9.80;99.90
21298;DHT22;10808;48.010;11.326;2023-03-13T08:36:42;9.90;99.90
21298;DHT22;10808;48.010;11.326;2023-03-13T08:39:15;10.00;99.90
21298;DHT22;10808;48.010;11.326;2023-03-13T08:41:41;10.20;99.90
21298;DHT22;10808;48.010;11.326;2023-03-13T08:44:11;10.30;99.90
21298;DHT22;10808;48.010;11.326;2023-03-13T08:46:38;10.40;99.90
21298;DHT22;10808;48.010;11.326;2023-03-13T08:49:05;10.50;99.90
21298;DHT22;10808;48.010;11.326;2023-03-13T08:51:32;10.60;99.90
21298;DHT22;10808;48.010;11.326;2023-03-13T08:53:58;10.70;99.90
21298;DHT22;10808;48.010;11.326;2023-03-13T08:56:26;10.80;99.90
21298;DHT22;10808;48.010;11.326;2023-03-13T08:58:55;10.90;99.90
21298;DHT22;10808;48.010;11.326;2023-03-13T09:01:23;10.90;99.90
21298;DHT22;10808;48.010;11.326;2023-03-13T09:03:50;10.90;99.90
21298;DHT22;10808;48.010;11.326;2023-03-13T09:06:16;10.90;99.90
21298;DHT22;10808;48.010;11.326;2023-03-13T09:08:42;10.90;99.90
21298;DHT22;10808;48.010;11.326;2023-03-13T09:11:11;11.00;99.90
21298;DHT22;10808;48.010;11.326;2023-03-13T09:13:44;11.10;99.90
21298;DHT22;10808;48.010;11.326;2023-03-13T09:16:19;11.20;99.90
21298;DHT22;10808;48.010;11.326;2023-03-13T09:18:46;11.40;99.90
21298;DHT22;10808;48.010;11.326;2023-03-13T09:21:17;11.50;99.90
21298;DHT22;10808;48.010;11.326;2023-03-13T09:23:43;11.60;99.90
21298;DHT22;10808;48.010;11.326;2023-03-13T09:26:10;11.80;99.90
21298;DHT22;10808;48.010;11.326;2023-03-13T09:28:36;12.10;99.90
21298;DHT22;10808;48.010;11.326;2023-03-13T09:31:29;12.30;99.90
21298;DHT22;10808;48.010;11.326;2023-03-13T09:33:56;12.60;99.90
21298;DHT22;10808;48.010;11.326;2023-03-13T09:36:22;12.80;99.90
21298;DHT22;10808;48.010;11.326;2023-03-13T09:38:52;13.10;99.90
21298;DHT22;10808;48.010;11.326;2023-03-13T09:41:32;13.30;99.90
21298;DHT22;10808;48.010;11.326;2023-03-13T09:44:10;13.60;99.90
21298;DHT22;10808;48.010;11.326;2023-03-13T09:49:27;13.90;99.40
21298;DHT22;10808;48.010;11.326;2023-03-13T09:52:26;14.00;99.50
21298;DHT22;10808;48.010;11.326;2023-03-13T09:57:45;14.50;99.90
21298;DHT22;10808;48.010;11.326;2023-03-13T10:02:46;15.00;99.90
21298;DHT22;10808;48.010;11.326;2023-03-13T10:05:23;15.20;99.50
21298;DHT22;10808;48.010;11.326;2023-03-13T10:08:07;15.50;98.90
21298;DHT22;10808;48.010;11.326;2023-03-13T10:16:21;16.20;97.70
21298;DHT22;10808;48.010;11.326;2023-03-13T10:18:54;16.30;97.10
21298;DHT22;10808;48.010;11.326;2023-03-13T10:21:22;16.50;96.80
21298;DHT22;10808;48.010;11.326;2023-03-13T10:23:54;16.80;96.80
21298;DHT22;10808;48.010;11.326;2023-03-13T10:26:29;17.00;96.50
21298;DHT22;10808;48.010;11.326;2023-03-13T10:28:56;17.20;95.70
21298;DHT22;10808;48.010;11.326;2023-03-13T10:31:31;17.40;96.10
21298;DHT22;10808;48.010;11.326;2023-03-13T10:34:12;17.50;95.40
21298;DHT22;10808;48.010;11.326;2023-03-13T10:36:44;17.60;94.40
21298;DHT22;10808;48.010;11.326;2023-03-13T10:39:24;17.70;95.20
21298;DHT22;10808;48.010;11.326;2023-03-13T10:42:15;17.80;93.90
21298;DHT22;10808;48.010;11.326;2023-03-13T10:44:43;18.00;95.10
21298;DHT22;10808;48.010;11.326;2023-03-13T10:47:18;18.30;94.50
21298;DHT22;10808;48.010;11.326;2023-03-13T10:49:49;18.30;92.90
21298;DHT22;10808;48.010;11.326;2023-03-13T10:52:45;18.30;94.10
21298;DHT22;10808;48.010;11.326;2023-03-13T10:55:17;18.30;93.00
21298;DHT22;10808;48.010;11.326;2023-03-13T11:00:39;18.20;92.30
21298;DHT22;10808;48.010;11.326;2023-03-13T11:03:14;18.10;91.60
21298;DHT22;10808;48.010;11.326;2023-03-13T11:05:56;18.00;92.00
21298;DHT22;10808;48.010;11.326;2023-03-13T11:08:41;18.00;92.10
21298;DHT22;10808;48.010;11.326;2023-03-13T11:11:48;18.00;92.30
21298;DHT22;10808;48.010;11.326;2023-03-13T11:14:19;18.10;92.70
21298;DHT22;10808;48.010;11.326;2023-03-13T11:17:23;18.20;92.30
21298;DHT22;10808;48.010;11.326;2023-03-13T11:19:57;18.20;92.60
21298;DHT22;10808;48.010;11.326;2023-03-13T11:31:10;18.60;93.80
21298;DHT22;10808;48.010;11.326;2023-03-13T11:42:34;19.00;94.40
21298;DHT22;10808;48.010;11.326;2023-03-13T11:48:48;19.00;94.80
21298;DHT22;10808;48.010;11.326;2023-03-13T11:51:30;19.10;95.20
21298;DHT22;10808;48.010;11.326;2023-03-13T11:57:04;19.20;95.10
21298;DHT22;10808;48.010;11.326;2023-03-13T12:00:06;19.30;94.90
21298;DHT22;10808;48.010;11.326;2023-03-13T12:05:46;19.30;95.10
21298;DHT22;10808;48.010;11.326;2023-03-13T12:08:38;19.30;94.70
21298;DHT22;10808;48.010;11.326;2023-03-13T12:11:23;19.30;94.60
21298;DHT22;10808;48.010;11.326;2023-03-13T12:13:59;19.40;95.00
21298;DHT22;10808;48.010;11.326;2023-03-13T12:16:38;19.50;94.80
21298;DHT22;10808;48.010;11.326;2023-03-13T12:19:13;19.50;94.40
21298;DHT22;10808;48.010;11.326;2023-03-13T12:25:10;19.30;94.30
21298;DHT22;10808;48.010;11.326;2023-03-13T12:33:57;19.30;94.50
21298;DHT22;10808;48.010;11.326;2023-03-13T12:36:30;19.30;94.60
21298;DHT22;10808;48.010;11.326;2023-03-13T12:44:38;19.30;94.40
21298;DHT22;10808;48.010;11.326;2023-03-13T12:55:37;19.40;94.50
21298;DHT22;10808;48.010;11.326;2023-03-13T13:01:33;19.90;94.60
21298;DHT22;10808;48.010;11.326;2023-03-13T13:04:13;19.90;94.50
21298;DHT22;10808;48.010;11.326;2023-03-13T13:10:00;20.20;93.90
21298;DHT22;10808;48.010;11.326;2023-03-13T13:12:26;20.20;93.60
21298;DHT22;10808;48.010;11.326;2023-03-13T13:15:04;20.30;93.50
21298;DHT22;10808;48.010;11.326;2023-03-13T13:17:50;20.30;93.50
21298;DHT22;10808;48.010;11.326;2023-03-13T13:20:37;20.40;93.60
21298;DHT22;10808;48.010;11.326;2023-03-13T13:23:34;20.60;93.30
21298;DHT22;10808;48.010;11.326;2023-03-13T13:28:59;20.90;93.30
21298;DHT22;10808;48.010;11.326;2023-03-13T13:37:01;21.10;92.50
21298;DHT22;10808;48.010;11.326;2023-03-13T13:47:42;21.70;91.90
21298;DHT22;10808;48.010;11.326;2023-03-13T13:50:20;21.70;91.90
21298;DHT22;10808;48.010;11.326;2023-03-13T13:52:48;21.60;91.40
21298;DHT22;10808;48.010;11.326;2023-03-13T13:55:39;21.60;91.90
21298;DHT22;10808;48.010;11.326;2023-03-13T13:58:11;21.80;91.70
21298;DHT22;10808;48.010;11.326;2023-03-13T14:00:44;21.80;91.50
21298;DHT22;10808;48.010;11.326;2023-03-13T14:03:26;22.00;92.00
21298;DHT22;10808;48.010;11.326;2023-03-13T14:05:59;22.30;91.70
21298;DHT22;10808;48.010;11.326;2023-03-13T14:08:36;22.60;91.30
21298;DHT22;10808;48.010;11.326;2023-03-13T14:11:06;22.90;91.20
21298;DHT22;10808;48.010;11.326;2023-03-13T14:13:34;23.00;90.30
21298;DHT22;10808;48.010;11.326;2023-03-13T14:16:25;23.20;90.30
21298;DHT22;10808;48.010;11.326;2023-03-13T14:18:52;23.30;90.10
21298;DHT22;10808;48.010;11.326;2023-03-13T14:21:23;23.60;89.90
21298;DHT22;10808;48.010;11.326;2023-03-13T14:23:49;23.80;90.20
21298;DHT22;10808;48.010;11.326;2023-03-13T14:26:27;24.00;90.00
21298;DHT22;10808;48.010;11.326;2023-03-13T14:28:54;24.20;89.80
21298;DHT22;10808;48.010;11.326;2023-03-13T14:31:26;24.50;86.50
21298;DHT22;10808;48.010;11.326;2023-03-13T14:33:53;24.60;86.60
21298;DHT22;10808;48.010;11.326;2023-03-13T14:36:19;24.70;86.50
21298;DHT22;10808;48.010;11.326;2023-03-13T14:42:15;25.10;85.30
21298;DHT22;10808;48.010;11.326;2023-03-13T14:44:53;25.40;87.50
21298;DHT22;10808;48.010;11.326;2023-03-13T14:47:28;25.70;87.90
21298;DHT22;10808;48.010;11.326;2023-03-13T14:50:02;25.80;85.50
21298;DHT22;10808;48.010;11.326;2023-03-13T14:52:47;25.80;83.50
21298;DHT22;10808;48.010;11.326;2023-03-13T14:58:23;25.70;83.10
21298;DHT22;10808;48.010;11.326;2023-03-13T15:00:49;25.50;82.00
21298;DHT22;10808;48.010;11.326;2023-03-13T15:03:27;25.40;84.80
21298;DHT22;10808;48.010;11.326;2023-03-13T15:08:30;25.20;83.00
21298;DHT22;10808;48.010;11.326;2023-03-13T15:10:56;25.10;86.30
21298;DHT22;10808;48.010;11.326;2023-03-13T15:13:35;25.00;85.60
21298;DHT22;10808;48.010;11.326;2023-03-13T15:16:11;24.90;86.40
21298;DHT22;10808;48.010;11.326;2023-03-13T15:18:50;24.80;85.40
21298;DHT22;10808;48.010;11.326;2023-03-13T15:21:23;24.40;84.80
21298;DHT22;10808;48.010;11.326;2023-03-13T15:23:59;24.30;86.40
21298;DHT22;10808;48.010;11.326;2023-03-13T15:26:27;24.10;87.30
21298;DHT22;10808;48.010;11.326;2023-03-13T15:28:54;24.00;88.40
21298;DHT22;10808;48.010;11.326;2023-03-13T15:31:24;23.80;87.30
21298;DHT22;10808;48.010;11.326;2023-03-13T15:33:56;23.60;88.00
21298;DHT22;10808;48.010;11.326;2023-03-13T15:36:23;23.50;87.90
21298;DHT22;10808;48.010;11.326;2023-03-13T15:38:56;23.20;87.20
21298;DHT22;10808;48.010;11.326;2023-03-13T15:41:22;23.00;88.60
21298;DHT22;10808;48.010;11.326;2023-03-13T15:43:50;22.90;90.20
21298;DHT22;10808;48.010;11.326;2023-03-13T15:46:18;23.00;90.20
21298;DHT22;10808;48.010;11.326;2023-03-13T15:48:45;22.90;90.00
21298;DHT22;10808;48.010;11.326;2023-03-13T15:51:26;22.90;90.40
21298;DHT22;10808;48.010;11.326;2023-03-13T15:53:58;22.90;90.40
21298;DHT22;10808;48.010;11.326;2023-03-13T15:56:29;23.00;90.40
21298;DHT22;10808;48.010;11.326;2023-03-13T15:58:57;23.20;89.50
21298;DHT22;10808;48.010;11.326;2023-03-13T16:01:26;23.20;88.80
21298;DHT22;10808;48.010;11.326;2023-03-13T16:04:01;23.30;87.80
21298;DHT22;10808;48.010;11.326;2023-03-13T16:06:41;23.30;87.80
21298;DHT22;10808;48.010;11.326;2023-03-13T16:09:20;23.30;86.80
21298;DHT22;10808;48.010;11.326;2023-03-13T16:11:46;23.10;86.60
21298;DHT22;10808;48.010;11.326;2023-03-13T16:14:12;22.90;89.70
21298;DHT22;10808;48.010;11.326;2023-03-13T16:16:48;22.80;89.10
21298;DHT22;10808;48.010;11.326;2023-03-13T16:19:32;22.60;90.10
21298;DHT22;10808;48.010;11.326;2023-03-13T16:22:06;22.50;90.60
21298;DHT22;10808;48.010;11.326;2023-03-13T16:24:42;22.30;90.90
21298;DHT22;10808;48.010;11.326;2023-03-13T16:27:44;22.00;90.90
21298;DHT22;10808;48.010;11.326;2023-03-13T16:30:44;21.80;91.40
21298;DHT22;10808;48.010;11.326;2023-03-13T16:33:21;21.60;91.80
21298;DHT22;10808;48.010;11.326;2023-03-13T16:35:50;21.40;92.50
21298;DHT22;10808;48.010;11.326;2023-03-13T16:38:21;21.30;92.70
21298;DHT22;10808;48.010;11.326;2023-03-13T16:40:48;21.10;91.60
21298;DHT22;10808;48.010;11.326;2023-03-13T16:43:16;20.90;91.70
21298;DHT22;10808;48.010;11.326;2023-03-13T16:45:42;20.70;91.40
21298;DHT22;10808;48.010;11.326;2023-03-13T16:48:15;20.50;91.10
21298;DHT22;10808;48.010;11.326;2023-03-13T16:50:42;20.30;91.40
21298;DHT22;10808;48.010;11.326;2023-03-13T16:53:11;20.20;92.20
21298;DHT22;10808;48.010;11.326;2023-03-13T16:55:37;20.10;92.20
21298;DHT22;10808;48.010;11.326;2023-03-13T16:58:08;20.00;92.50
21298;DHT22;10808;48.010;11.326;2023-03-13T17:00:35;19.80;92.40
21298;DHT22;10808;48.010;11.326;2023-03-13T17:03:01;19.70;92.50
21298;DHT22;10808;48.010;11.326;2023-03-13T17:05:35;19.50;92.90
21298;DHT22;10808;48.010;11.326;2023-03-13T17:08:11;19.40;93.10
21298;DHT22;10808;48.010;11.326;2023-03-13T17:11:03;19.20;93.40
21298;DHT22;10808;48.010;11.326;2023-03-13T17:13:29;19.10;93.20
21298;DHT22;10808;48.010;11.326;2023-03-13T17:15:57;18.90;93.70
21298;DHT22;10808;48.010;11.326;2023-03-13T17:18:37;18.80;93.70
21298;DHT22;10808;48.010;11.326;2023-03-13T17:21:03;18.50;94.20
21298;DHT22;10808;48.010;11.326;2023-03-13T17:23:30;18.40;94.20
21298;DHT22;10808;48.010;11.326;2023-03-13T17:25:56;18.20;94.10
21298;DHT22;10808;48.010;11.326;2023-03-13T17:28:45;18.00;94.60
21298;DHT22;10808;48.010;11.326;2023-03-13T17:31:12;17.90;94.60
21298;DHT22;10808;48.010;11.326;2023-03-13T17:33:45;17.80;94.90
21298;DHT22;10808;48.010;11.326;2023-03-13T17:36:30;17.60;94.80